sensor_id;sensor_type;location;lat;lon;timestamp;pressure;altitude;pressure_sealevel;temperature;humidity
59272;BME280;45043;51.068;7.026;2022-08-11T00:00:37;101003.75;;;19.02;33.42
59272;BME280;45043;51.068;7.026;2022-08-11T00:03:43;101003.91;;;18.96;33.45
59272;BME280;45043;51.068;7.026;2022-08-11T00:06:47;101000.28;;;18.90;33.53
59272;BME280;45043;51.068;7.026;2022-08-11T00:09:48;100997.97;;;18.82;33.58
59272;BME280;45043;51.068;7.026;2022-08-11T00:12:57;101003.00;;;18.78;34.02
59272;BME280;45043;51.068;7.026;2022-08-11T00:15:58;101000.69;;;18.70;33.71
59272;BME280;45043;51.068;7.026;2022-08-11T00:19:01;100999.28;;;18.67;33.54
59272;BME280;45043;51.068;7.026;2022-08-11T00:22:03;100994.72;;;18.68;33.50
59272;BME280;45043;51.068;7.026;2022-08-11T00:25:14;100997.84;;;18.65;33.63
59272;BME280;45043;51.068;7.026;2022-08-11T00:28:29;100990.75;;;18.59;33.93
59272;BME280;45043;51.068;7.026;2022-08-11T00:31:32;100994.00;;;18.61;33.64
59272;BME280;45043;51.068;7.026;2022-08-11T00:34:36;100992.84;;;18.57;33.98
59272;BME280;45043;51.068;7.026;2022-08-11T00:37:38;100992.75;;;18.52;34.00
59272;BME280;45043;51.068;7.026;2022-08-11T00:40:41;100989.47;;;18.50;33.60
59272;BME280;45043;51.068;7.026;2022-08-11T00:43:58;100994.28;;;18.48;33.69
59272;BME280;45043;51.068;7.026;2022-08-11T01:04:31;100987.50;;;18.33;33.30
59272;BME280;45043;51.068;7.026;2022-08-11T01:21:40;100982.22;;;18.38;33.31
59272;BME280;45043;51.068;7.026;2022-08-11T01:42:03;100972.16;;;18.46;33.02
59272;BME280;45043;51.068;7.026;2022-08-11T01:45:45;100976.00;;;18.50;32.96
59272;BME280;45043;51.068;7.026;2022-08-11T01:48:52;100978.22;;;18.53;32.73
59272;BME280;45043;51.068;7.026;2022-08-11T01:52:16;100974.94;;;18.51;33.03
59272;BME280;45043;51.068;7.026;2022-08-11T01:55:31;100975.88;;;18.56;32.65
59272;BME280;45043;51.068;7.026;2022-08-11T02:02:21;100983.38;;;18.54;32.60
59272;BME280;45043;51.068;7.026;2022-08-11T02:05:56;100983.38;;;18.54;32.64
59272;BME280;45043;51.068;7.026;2022-08-11T02:12:45;100979.84;;;18.54;33.14
59272;BME280;45043;51.068;7.026;2022-08-11T02:15:54;100975.78;;;18.51;33.06
59272;BME280;45043;51.068;7.026;2022-08-11T02:32:33;100989.03;;;18.41;33.03
59272;BME280;45043;51.068;7.026;2022-08-11T02:36:39;100992.44;;;18.36;33.69
59272;BME280;45043;51.068;7.026;2022-08-11T02:50:04;100992.31;;;18.19;34.29
59272;BME280;45043;51.068;7.026;2022-08-11T02:59:50;100995.94;;;18.13;33.90
59272;BME280;45043;51.068;7.026;2022-08-11T03:06:30;100991.16;;;18.04;34.25
59272;BME280;45043;51.068;7.026;2022-08-11T03:12:56;100990.91;;;17.93;34.86
59272;BME280;45043;51.068;7.026;2022-08-11T03:16:45;100993.91;;;17.85;34.44
59272;BME280;45043;51.068;7.026;2022-08-11T03:23:17;100993.19;;;17.78;34.99
59272;BME280;45043;51.068;7.026;2022-08-11T03:26:32;100991.78;;;17.76;35.23
59272;BME280;45043;51.068;7.026;2022-08-11T03:30:12;100985.25;;;17.71;35.01
59272;BME280;45043;51.068;7.026;2022-08-11T03:33:28;100989.69;;;17.66;35.45
59272;BME280;45043;51.068;7.026;2022-08-11T03:40:35;100998.53;;;17.55;35.93
59272;BME280;45043;51.068;7.026;2022-08-11T03:44:09;100992.22;;;17.49;35.67
59272;BME280;45043;51.068;7.026;2022-08-11T03:51:04;100983.88;;;17.39;35.85
59272;BME280;45043;51.068;7.026;2022-08-11T04:01:47;100991.47;;;17.30;35.84
59272;BME280;45043;51.068;7.026;2022-08-11T04:18:17;100994.56;;;17.15;36.40
59272;BME280;45043;51.068;7.026;2022-08-11T04:24:53;100992.00;;;17.20;36.39
59272;BME280;45043;51.068;7.026;2022-08-11T04:28:05;100992.81;;;17.21;36.40
59272;BME280;45043;51.068;7.026;2022-08-11T04:49:37;100999.38;;;17.67;35.54
59272;BME280;45043;51.068;7.026;2022-08-11T04:56:34;101003.03;;;17.84;35.49
59272;BME280;45043;51.068;7.026;2022-08-11T05:03:45;101007.03;;;17.93;34.76
59272;BME280;45043;51.068;7.026;2022-08-11T05:17:37;101009.00;;;18.10;34.94
59272;BME280;45043;51.068;7.026;2022-08-11T05:20:56;101012.06;;;18.13;35.15
59272;BME280;45043;51.068;7.026;2022-08-11T05:24:23;101016.16;;;18.16;35.43
59272;BME280;45043;51.068;7.026;2022-08-11T05:28:05;101011.25;;;18.13;35.48
59272;BME280;45043;51.068;7.026;2022-08-11T05:31:32;101023.16;;;18.17;36.08
59272;BME280;45043;51.068;7.026;2022-08-11T05:34:54;101020.72;;;18.15;36.69
59272;BME280;45043;51.068;7.026;2022-08-11T05:37:58;101023.53;;;18.21;36.39
59272;BME280;45043;51.068;7.026;2022-08-11T05:41:21;101028.78;;;18.27;35.38
59272;BME280;45043;51.068;7.026;2022-08-11T05:44:44;101022.47;;;18.33;35.53
59272;BME280;45043;51.068;7.026;2022-08-11T05:48:04;101029.84;;;18.38;35.71
59272;BME280;45043;51.068;7.026;2022-08-11T05:51:35;101025.97;;;18.46;35.78
59272;BME280;45043;51.068;7.026;2022-08-11T05:55:00;101029.34;;;18.53;35.83
59272;BME280;45043;51.068;7.026;2022-08-11T05:58:20;101035.69;;;18.58;35.54
59272;BME280;45043;51.068;7.026;2022-08-11T06:01:32;101024.56;;;18.66;35.58
59272;BME280;45043;51.068;7.026;2022-08-11T06:04:34;101022.91;;;18.77;36.19
59272;BME280;45043;51.068;7.026;2022-08-11T06:07:37;101027.94;;;18.85;35.31
59272;BME280;45043;51.068;7.026;2022-08-11T06:10:40;101027.88;;;18.97;35.87
59272;BME280;45043;51.068;7.026;2022-08-11T06:13:43;101034.75;;;19.05;35.75
59272;BME280;45043;51.068;7.026;2022-08-11T06:16:49;101032.28;;;19.15;36.36
59272;BME280;45043;51.068;7.026;2022-08-11T06:19:59;101032.47;;;19.25;35.80
59272;BME280;45043;51.068;7.026;2022-08-11T06:23:03;101030.75;;;19.36;35.90
59272;BME280;45043;51.068;7.026;2022-08-11T06:26:08;101031.78;;;19.47;35.73
59272;BME280;45043;51.068;7.026;2022-08-11T06:29:10;101029.28;;;19.57;35.94
59272;BME280;45043;51.068;7.026;2022-08-11T06:32:11;101031.34;;;19.67;36.05
59272;BME280;45043;51.068;7.026;2022-08-11T06:35:22;101030.47;;;19.78;36.15
59272;BME280;45043;51.068;7.026;2022-08-11T06:41:51;101030.94;;;19.92;36.21
59272;BME280;45043;51.068;7.026;2022-08-11T06:45:01;101029.00;;;20.04;36.62
59272;BME280;45043;51.068;7.026;2022-08-11T06:48:14;101030.66;;;20.22;36.50
59272;BME280;45043;51.068;7.026;2022-08-11T06:51:15;101047.78;;;20.71;38.10
59272;BME280;45043;51.068;7.026;2022-08-11T06:54:16;101036.50;;;21.18;37.99
59272;BME280;45043;51.068;7.026;2022-08-11T06:57:18;101039.56;;;21.54;37.61
59272;BME280;45043;51.068;7.026;2022-08-11T07:00:37;101025.97;;;21.76;37.33
59272;BME280;45043;51.068;7.026;2022-08-11T07:03:43;101030.19;;;21.99;37.00
59272;BME280;45043;51.068;7.026;2022-08-11T07:10:41;101039.63;;;22.29;36.49
59272;BME280;45043;51.068;7.026;2022-08-11T07:14:06;101035.38;;;22.38;35.92
59272;BME280;45043;51.068;7.026;2022-08-11T07:17:27;101035.16;;;22.49;36.24
59272;BME280;45043;51.068;7.026;2022-08-11T07:20:31;101039.81;;;22.59;36.63
59272;BME280;45043;51.068;7.026;2022-08-11T07:23:53;101040.66;;;22.70;36.66
59272;BME280;45043;51.068;7.026;2022-08-11T07:27:16;101035.84;;;22.77;36.57
59272;BME280;45043;51.068;7.026;2022-08-11T07:30:39;101030.19;;;22.84;36.68
59272;BME280;45043;51.068;7.026;2022-08-11T07:33:49;101031.84;;;22.90;36.37
59272;BME280;45043;51.068;7.026;2022-08-11T07:37:03;101031.56;;;22.91;36.84
59272;BME280;45043;51.068;7.026;2022-08-11T07:40:09;101029.69;;;22.97;37.17
59272;BME280;45043;51.068;7.026;2022-08-11T07:43:11;101032.41;;;23.02;36.64
59272;BME280;45043;51.068;7.026;2022-08-11T07:46:13;101030.50;;;23.03;36.47
59272;BME280;45043;51.068;7.026;2022-08-11T07:49:37;101026.75;;;23.04;36.60
59272;BME280;45043;51.068;7.026;2022-08-11T07:52:58;101031.88;;;23.00;36.43
59272;BME280;45043;51.068;7.026;2022-08-11T07:56:00;101018.88;;;23.02;36.28
59272;BME280;45043;51.068;7.026;2022-08-11T07:59:05;101017.78;;;23.03;36.04
59272;BME280;45043;51.068;7.026;2022-08-11T08:02:24;101020.19;;;22.99;36.41
59272;BME280;45043;51.068;7.026;2022-08-11T08:05:44;101026.47;;;23.00;35.93
59272;BME280;45043;51.068;7.026;2022-08-11T08:09:05;101017.25;;;23.01;36.42
59272;BME280;45043;51.068;7.026;2022-08-11T08:12:27;101018.91;;;23.07;36.22
59272;BME280;45043;51.068;7.026;2022-08-11T08:15:47;101023.75;;;23.10;36.43
59272;BME280;45043;51.068;7.026;2022-08-11T08:19:11;101021.59;;;23.12;36.51
59272;BME280;45043;51.068;7.026;2022-08-11T08:22:17;101015.38;;;23.12;35.31
59272;BME280;45043;51.068;7.026;2022-08-11T08:25:19;101018.34;;;23.10;34.71
59272;BME280;45043;51.068;7.026;2022-08-11T08:28:20;101027.56;;;23.04;34.63
59272;BME280;45043;51.068;7.026;2022-08-11T08:31:21;101032.97;;;23.04;34.49
59272;BME280;45043;51.068;7.026;2022-08-11T08:34:22;101034.88;;;23.04;34.77
59272;BME280;45043;51.068;7.026;2022-08-11T08:37:24;101032.69;;;23.06;34.27
59272;BME280;45043;51.068;7.026;2022-08-11T08:40:26;101025.91;;;23.03;34.30
59272;BME280;45043;51.068;7.026;2022-08-11T08:43:28;101024.03;;;23.04;34.04
59272;BME280;45043;51.068;7.026;2022-08-11T08:46:35;101022.13;;;23.04;34.20
59272;BME280;45043;51.068;7.026;2022-08-11T08:49:38;101031.88;;;23.05;34.25
59272;BME280;45043;51.068;7.026;2022-08-11T08:52:46;101025.38;;;23.06;34.09
59272;BME280;45043;51.068;7.026;2022-08-11T08:55:51;101029.72;;;23.07;34.38
59272;BME280;45043;51.068;7.026;2022-08-11T08:58:58;101029.97;;;23.06;33.88
59272;BME280;45043;51.068;7.026;2022-08-11T09:02:02;101035.97;;;23.08;34.09
59272;BME280;45043;51.068;7.026;2022-08-11T09:05:04;101038.91;;;23.06;33.90
59272;BME280;45043;51.068;7.026;2022-08-11T09:08:08;101036.78;;;23.08;34.03
59272;BME280;45043;51.068;7.026;2022-08-11T09:11:10;101034.59;;;23.10;34.20
59272;BME280;45043;51.068;7.026;2022-08-11T09:14:35;101041.38;;;23.08;33.98
59272;BME280;45043;51.068;7.026;2022-08-11T09:17:59;101027.84;;;23.08;33.96
59272;BME280;45043;51.068;7.026;2022-08-11T09:21:06;101031.34;;;23.08;34.12
59272;BME280;45043;51.068;7.026;2022-08-11T09:24:07;101032.44;;;23.12;33.89
59272;BME280;45043;51.068;7.026;2022-08-11T09:27:27;101028.66;;;23.13;34.00
59272;BME280;45043;51.068;7.026;2022-08-11T09:30:28;101023.22;;;23.13;33.75
59272;BME280;45043;51.068;7.026;2022-08-11T09:33:30;101024.03;;;23.14;34.11
59272;BME280;45043;51.068;7.026;2022-08-11T09:36:33;101019.44;;;23.14;33.69
59272;BME280;45043;51.068;7.026;2022-08-11T09:39:54;101020.25;;;23.15;33.97
59272;BME280;45043;51.068;7.026;2022-08-11T09:43:17;101023.22;;;23.13;33.32
59272;BME280;45043;51.068;7.026;2022-08-11T09:46:36;101014.00;;;23.09;33.90
59272;BME280;45043;51.068;7.026;2022-08-11T09:49:39;101022.69;;;23.11;33.27
59272;BME280;45043;51.068;7.026;2022-08-11T09:52:41;101015.38;;;23.12;33.72
59272;BME280;45043;51.068;7.026;2022-08-11T09:55:45;101007.78;;;23.14;33.46
59272;BME280;45043;51.068;7.026;2022-08-11T09:58:46;101009.41;;;23.15;32.93
59272;BME280;45043;51.068;7.026;2022-08-11T10:02:01;101005.34;;;23.12;33.61
59272;BME280;45043;51.068;7.026;2022-08-11T10:05:02;101007.25;;;23.17;33.36
59272;BME280;45043;51.068;7.026;2022-08-11T10:08:26;101001.81;;;23.17;32.94
59272;BME280;45043;51.068;7.026;2022-08-11T10:11:28;100997.75;;;23.14;32.75
59272;BME280;45043;51.068;7.026;2022-08-11T10:14:30;101007.78;;;23.14;33.24
59272;BME280;45043;51.068;7.026;2022-08-11T10:17:53;100995.88;;;23.15;33.12
59272;BME280;45043;51.068;7.026;2022-08-11T10:24:36;100992.06;;;23.11;32.83
59272;BME280;45043;51.068;7.026;2022-08-11T10:27:55;100985.81;;;23.10;33.08
59272;BME280;45043;51.068;7.026;2022-08-11T10:30:58;100986.66;;;23.11;32.96
59272;BME280;45043;51.068;7.026;2022-08-11T10:34:19;100982.56;;;23.08;32.84
59272;BME280;45043;51.068;7.026;2022-08-11T10:37:21;100975.53;;;23.07;32.90
59272;BME280;45043;51.068;7.026;2022-08-11T10:40:22;100974.16;;;23.10;32.63
59272;BME280;45043;51.068;7.026;2022-08-11T10:43:24;100972.00;;;23.12;33.10
59272;BME280;45043;51.068;7.026;2022-08-11T10:46:25;100972.81;;;23.12;32.57
59272;BME280;45043;51.068;7.026;2022-08-11T10:49:45;100965.78;;;23.11;32.82
59272;BME280;45043;51.068;7.026;2022-08-11T10:53:06;100963.59;;;23.13;33.03
59272;BME280;45043;51.068;7.026;2022-08-11T10:56:29;100970.91;;;23.18;33.21
59272;BME280;45043;51.068;7.026;2022-08-11T10:59:49;100962.25;;;23.16;33.01
59272;BME280;45043;51.068;7.026;2022-08-11T11:02:51;100950.31;;;23.17;32.57
59272;BME280;45043;51.068;7.026;2022-08-11T11:05:54;100953.31;;;23.20;32.69
59272;BME280;45043;51.068;7.026;2022-08-11T11:09:14;100944.38;;;23.20;32.20
59272;BME280;45043;51.068;7.026;2022-08-11T11:12:40;100946.28;;;23.19;32.66
59272;BME280;45043;51.068;7.026;2022-08-11T11:16:00;100941.13;;;23.23;32.88
59272;BME280;45043;51.068;7.026;2022-08-11T11:19:22;100937.31;;;23.24;32.45
59272;BME280;45043;51.068;7.026;2022-08-11T11:22:27;100928.09;;;23.25;32.57
59272;BME280;45043;51.068;7.026;2022-08-11T11:25:51;100925.66;;;23.23;32.64
59272;BME280;45043;51.068;7.026;2022-08-11T11:29:24;100911.03;;;23.19;32.62
59272;BME280;45043;51.068;7.026;2022-08-11T11:39:29;100917.81;;;23.22;33.29
59272;BME280;45043;51.068;7.026;2022-08-11T11:42:31;100919.72;;;23.27;33.13
59272;BME280;45043;51.068;7.026;2022-08-11T11:45:32;100906.44;;;23.30;32.81
59272;BME280;45043;51.068;7.026;2022-08-11T11:48:33;100907.25;;;23.31;33.25
59272;BME280;45043;51.068;7.026;2022-08-11T11:51:36;100898.31;;;23.30;33.36
59272;BME280;45043;51.068;7.026;2022-08-11T11:54:38;100905.63;;;23.35;33.11
59272;BME280;45043;51.068;7.026;2022-08-11T11:57:40;100905.63;;;23.35;33.09
59272;BME280;45043;51.068;7.026;2022-08-11T12:01:00;100899.38;;;23.34;32.96
59272;BME280;45043;51.068;7.026;2022-08-11T12:04:20;100897.19;;;23.36;33.18
59272;BME280;45043;51.068;7.026;2022-08-11T12:07:22;100896.69;;;23.39;33.39
59272;BME280;45043;51.068;7.026;2022-08-11T12:10:50;100894.25;;;23.43;33.14
59272;BME280;45043;51.068;7.026;2022-08-11T12:14:12;100882.31;;;23.44;33.46
59272;BME280;45043;51.068;7.026;2022-08-11T12:17:15;100878.53;;;23.45;33.17
59272;BME280;45043;51.068;7.026;2022-08-11T12:20:16;100869.31;;;23.46;33.18
59272;BME280;45043;51.068;7.026;2022-08-11T12:23:20;100867.16;;;23.48;33.05
59272;BME280;45043;51.068;7.026;2022-08-11T12:26:39;100863.88;;;23.46;33.01
59272;BME280;45043;51.068;7.026;2022-08-11T12:30:02;100860.06;;;23.47;33.63
59272;BME280;45043;51.068;7.026;2022-08-11T12:33:07;100859.25;;;23.46;33.30
59272;BME280;45043;51.068;7.026;2022-08-11T12:36:10;100848.16;;;23.48;32.83
59272;BME280;45043;51.068;7.026;2022-08-11T12:39:22;100852.22;;;23.45;33.56
59272;BME280;45043;51.068;7.026;2022-08-11T12:42:43;100849.75;;;23.44;32.97
59272;BME280;45043;51.068;7.026;2022-08-11T12:46:06;100845.19;;;23.44;33.44
59272;BME280;45043;51.068;7.026;2022-08-11T12:49:19;100840.31;;;23.41;33.47
59272;BME280;45043;51.068;7.026;2022-08-11T12:52:44;100838.13;;;23.43;33.44
59272;BME280;45043;51.068;7.026;2022-08-11T12:55:50;100833.50;;;23.44;32.99
59272;BME280;45043;51.068;7.026;2022-08-11T12:59:24;100831.38;;;23.41;33.50
59272;BME280;45043;51.068;7.026;2022-08-11T13:02:45;100841.63;;;23.44;33.20
59272;BME280;45043;51.068;7.026;2022-08-11T13:06:06;100826.47;;;23.43;33.57
59272;BME280;45043;51.068;7.026;2022-08-11T13:09:09;100818.88;;;23.45;33.49
59272;BME280;45043;51.068;7.026;2022-08-11T13:12:11;100815.63;;;23.48;32.94
59272;BME280;45043;51.068;7.026;2022-08-11T13:15:30;100814.53;;;23.49;33.22
59272;BME280;45043;51.068;7.026;2022-08-11T13:18:32;100820.22;;;23.53;33.72
59272;BME280;45043;51.068;7.026;2022-08-11T13:21:34;100812.34;;;23.51;33.24
59272;BME280;45043;51.068;7.026;2022-08-11T13:24:35;100813.69;;;23.54;33.03
59272;BME280;45043;51.068;7.026;2022-08-11T13:27:36;100814.50;;;23.54;33.33
59272;BME280;45043;51.068;7.026;2022-08-11T13:30:37;100803.66;;;23.54;32.90
59272;BME280;45043;51.068;7.026;2022-08-11T13:33:57;100793.34;;;23.51;33.60
59272;BME280;45043;51.068;7.026;2022-08-11T13:37:02;100790.91;;;23.55;32.85
59272;BME280;45043;51.068;7.026;2022-08-11T13:40:05;100793.91;;;23.53;33.58
59272;BME280;45043;51.068;7.026;2022-08-11T13:43:06;100792.28;;;23.52;33.61
59272;BME280;45043;51.068;7.026;2022-08-11T13:46:08;100786.06;;;23.52;32.93
59272;BME280;45043;51.068;7.026;2022-08-11T13:49:20;100789.84;;;23.51;33.17
59272;BME280;45043;51.068;7.026;2022-08-11T13:52:21;100784.16;;;23.52;33.12
59272;BME280;45043;51.068;7.026;2022-08-11T13:55:22;100780.91;;;23.50;33.21
59272;BME280;45043;51.068;7.026;2022-08-11T13:58:23;100779.00;;;23.51;33.67
59272;BME280;45043;51.068;7.026;2022-08-11T14:01:28;100783.06;;;23.53;33.46
59272;BME280;45043;51.068;7.026;2022-08-11T14:04:49;100776.03;;;23.52;33.72
59272;BME280;45043;51.068;7.026;2022-08-11T14:07:57;100778.19;;;23.50;32.95
59272;BME280;45043;51.068;7.026;2022-08-11T14:11:00;100760.81;;;23.51;33.28
59272;BME280;45043;51.068;7.026;2022-08-11T14:14:22;100766.78;;;23.53;33.06
59272;BME280;45043;51.068;7.026;2022-08-11T14:17:24;100764.06;;;23.53;33.57
59272;BME280;45043;51.068;7.026;2022-08-11T14:20:26;100758.09;;;23.56;33.50
59272;BME280;45043;51.068;7.026;2022-08-11T14:23:51;100751.59;;;23.57;33.41
59272;BME280;45043;51.068;7.026;2022-08-11T14:26:54;100747.25;;;23.56;33.14
59272;BME280;45043;51.068;7.026;2022-08-11T14:29:56;100749.41;;;23.59;33.04
59272;BME280;45043;51.068;7.026;2022-08-11T14:32:58;100751.28;;;23.59;33.16
59272;BME280;45043;51.068;7.026;2022-08-11T14:35:59;100748.31;;;23.55;32.96
59272;BME280;45043;51.068;7.026;2022-08-11T14:39:10;100739.34;;;23.65;26.17
59272;BME280;45043;51.068;7.026;2022-08-11T14:42:16;100719.59;;;25.11;23.03
59272;BME280;45043;51.068;7.026;2022-08-11T14:45:40;100718.03;;;26.34;20.94
59272;BME280;45043;51.068;7.026;2022-08-11T14:49:00;100717.09;;;27.18;20.57
59272;BME280;45043;51.068;7.026;2022-08-11T14:52:12;100710.50;;;27.74;19.34
59272;BME280;45043;51.068;7.026;2022-08-11T14:55:15;100711.84;;;28.13;19.41
59272;BME280;45043;51.068;7.026;2022-08-11T14:58:35;100708.97;;;28.40;18.80
59272;BME280;45043;51.068;7.026;2022-08-11T15:01:36;100703.41;;;28.68;18.20
59272;BME280;45043;51.068;7.026;2022-08-11T15:04:57;100709.09;;;28.80;18.36
59272;BME280;45043;51.068;7.026;2022-08-11T15:08:00;100714.38;;;28.77;18.39
59272;BME280;45043;51.068;7.026;2022-08-11T15:11:00;100716.72;;;28.61;17.92
59272;BME280;45043;51.068;7.026;2022-08-11T15:14:22;100704.13;;;28.37;17.74
59272;BME280;45043;51.068;7.026;2022-08-11T15:17:42;100701.78;;;28.44;18.28
59272;BME280;45043;51.068;7.026;2022-08-11T15:20:43;100699.44;;;28.52;18.15
59272;BME280;45043;51.068;7.026;2022-08-11T15:24:02;100686.94;;;28.59;17.65
59272;BME280;45043;51.068;7.026;2022-08-11T15:27:19;100686.28;;;28.54;17.84
59272;BME280;45043;51.068;7.026;2022-08-11T15:30:40;100679.78;;;28.72;18.03
59272;BME280;45043;51.068;7.026;2022-08-11T15:34:04;100675.38;;;28.93;17.56
59272;BME280;45043;51.068;7.026;2022-08-11T15:37:27;100666.31;;;28.84;17.82
59272;BME280;45043;51.068;7.026;2022-08-11T15:40:37;100658.88;;;28.76;18.08
59272;BME280;45043;51.068;7.026;2022-08-11T15:44:05;100673.88;;;28.79;18.35
59272;BME280;45043;51.068;7.026;2022-08-11T15:47:36;100671.25;;;28.73;18.04
59272;BME280;45043;51.068;7.026;2022-08-11T15:50:40;100654.03;;;28.73;17.80
59272;BME280;45043;51.068;7.026;2022-08-11T15:53:52;100650.25;;;28.91;17.60
59272;BME280;45043;51.068;7.026;2022-08-11T15:56:54;100642.63;;;29.11;17.39
59272;BME280;45043;51.068;7.026;2022-08-11T15:59:56;100643.94;;;29.22;17.24
59272;BME280;45043;51.068;7.026;2022-08-11T16:03:18;100639.94;;;29.28;17.66
59272;BME280;45043;51.068;7.026;2022-08-11T16:09:51;100641.41;;;29.34;16.86
59272;BME280;45043;51.068;7.026;2022-08-11T16:13:04;100628.81;;;29.16;17.79
59272;BME280;45043;51.068;7.026;2022-08-11T16:16:06;100629.28;;;29.09;17.63
59272;BME280;45043;51.068;7.026;2022-08-11T16:19:15;100632.63;;;29.06;17.46
59272;BME280;45043;51.068;7.026;2022-08-11T16:22:22;100637.47;;;29.01;17.13
59272;BME280;45043;51.068;7.026;2022-08-11T16:25:39;100630.50;;;28.94;17.67
59272;BME280;45043;51.068;7.026;2022-08-11T16:28:42;100625.19;;;28.89;17.50
59272;BME280;45043;51.068;7.026;2022-08-11T16:31:44;100634.13;;;28.81;17.26
59272;BME280;45043;51.068;7.026;2022-08-11T16:35:08;100628.19;;;28.79;17.46
59272;BME280;45043;51.068;7.026;2022-08-11T16:38:29;100625.47;;;28.79;17.56
59272;BME280;45043;51.068;7.026;2022-08-11T16:41:37;100626.91;;;28.85;17.84
59272;BME280;45043;51.068;7.026;2022-08-11T16:44:58;100624.84;;;28.82;17.39
59272;BME280;45043;51.068;7.026;2022-08-11T16:48:18;100619.63;;;28.72;18.07
59272;BME280;45043;51.068;7.026;2022-08-11T16:51:21;100624.59;;;28.70;17.63
59272;BME280;45043;51.068;7.026;2022-08-11T16:54:22;100619.47;;;28.68;17.65
59272;BME280;45043;51.068;7.026;2022-08-11T16:57:24;100614.66;;;28.74;17.25
59272;BME280;45043;51.068;7.026;2022-08-11T17:00:44;100616.13;;;28.80;16.95
59272;BME280;45043;51.068;7.026;2022-08-11T17:03:51;100614.09;;;28.94;16.88
59272;BME280;45043;51.068;7.026;2022-08-11T17:07:13;100618.06;;;28.88;17.62
59272;BME280;45043;51.068;7.026;2022-08-11T17:10:46;100617.09;;;28.84;16.88
59272;BME280;45043;51.068;7.026;2022-08-11T17:14:12;100614.53;;;28.79;17.55
59272;BME280;45043;51.068;7.026;2022-08-11T17:17:19;100609.84;;;28.80;17.21
59272;BME280;45043;51.068;7.026;2022-08-11T17:20:22;100608.59;;;28.86;17.67
59272;BME280;45043;51.068;7.026;2022-08-11T17:23:23;100621.78;;;28.84;17.78
59272;BME280;45043;51.068;7.026;2022-08-11T17:26:45;100613.66;;;28.61;18.39
59272;BME280;45043;51.068;7.026;2022-08-11T17:29:58;100606.28;;;28.39;18.99
59272;BME280;45043;51.068;7.026;2022-08-11T17:33:00;100616.84;;;28.32;19.53
59272;BME280;45043;51.068;7.026;2022-08-11T17:36:20;100606.28;;;28.08;19.40
59272;BME280;45043;51.068;7.026;2022-08-11T17:39:24;100601.69;;;27.95;19.69
59272;BME280;45043;51.068;7.026;2022-08-11T17:42:30;100614.63;;;27.89;19.68
59272;BME280;45043;51.068;7.026;2022-08-11T17:45:49;100620.31;;;27.79;19.70
59272;BME280;45043;51.068;7.026;2022-08-11T17:49:11;100619.16;;;27.71;19.61
59272;BME280;45043;51.068;7.026;2022-08-11T17:52:12;100619.56;;;27.65;19.78
59272;BME280;45043;51.068;7.026;2022-08-11T17:55:34;100627.50;;;27.52;20.09
59272;BME280;45043;51.068;7.026;2022-08-11T17:58:55;100618.41;;;27.29;20.15
59272;BME280;45043;51.068;7.026;2022-08-11T18:02:15;100619.31;;;27.25;20.42
59272;BME280;45043;51.068;7.026;2022-08-11T18:05:38;100626.19;;;27.22;20.11
59272;BME280;45043;51.068;7.026;2022-08-11T18:08:45;100637.41;;;27.21;20.65
59272;BME280;45043;51.068;7.026;2022-08-11T18:12:06;100626.72;;;27.11;20.86
59272;BME280;45043;51.068;7.026;2022-08-11T18:15:26;100635.00;;;27.05;20.79
59272;BME280;45043;51.068;7.026;2022-08-11T18:18:46;100626.72;;;26.97;20.60
59272;BME280;45043;51.068;7.026;2022-08-11T18:22:14;100641.88;;;26.89;21.23
59272;BME280;45043;51.068;7.026;2022-08-11T18:25:38;100634.97;;;26.78;21.10
59272;BME280;45043;51.068;7.026;2022-08-11T18:28:59;100635.25;;;26.63;21.23
59272;BME280;45043;51.068;7.026;2022-08-11T18:32:20;100634.44;;;26.62;21.40
59272;BME280;45043;51.068;7.026;2022-08-11T18:35:40;100643.63;;;26.52;21.50
59272;BME280;45043;51.068;7.026;2022-08-11T18:39:01;100632.47;;;26.35;21.78
59272;BME280;45043;51.068;7.026;2022-08-11T18:42:23;100640.94;;;26.15;21.80
59272;BME280;45043;51.068;7.026;2022-08-11T18:45:43;100649.09;;;26.01;22.61
59272;BME280;45043;51.068;7.026;2022-08-11T18:49:17;100651.22;;;25.85;22.29
59272;BME280;45043;51.068;7.026;2022-08-11T18:52:40;100651.38;;;25.75;22.51
59272;BME280;45043;51.068;7.026;2022-08-11T18:56:00;100652.44;;;25.55;22.54
59272;BME280;45043;51.068;7.026;2022-08-11T18:59:23;100647.50;;;25.38;23.37
59272;BME280;45043;51.068;7.026;2022-08-11T19:02:44;100645.00;;;25.23;23.17
59272;BME280;45043;51.068;7.026;2022-08-11T19:06:05;100644.03;;;25.08;23.46
59272;BME280;45043;51.068;7.026;2022-08-11T19:09:27;100652.59;;;24.97;23.94
59272;BME280;45043;51.068;7.026;2022-08-11T19:12:48;100661.75;;;24.82;23.81
59272;BME280;45043;51.068;7.026;2022-08-11T19:16:08;100672.69;;;24.72;23.73
59272;BME280;45043;51.068;7.026;2022-08-11T19:19:28;100672.78;;;24.61;24.59
59272;BME280;45043;51.068;7.026;2022-08-11T19:22:52;100681.00;;;24.51;24.29
59272;BME280;45043;51.068;7.026;2022-08-11T19:26:12;100686.81;;;24.39;24.54
59272;BME280;45043;51.068;7.026;2022-08-11T19:29:34;100690.69;;;24.28;24.49
59272;BME280;45043;51.068;7.026;2022-08-11T19:32:54;100688.88;;;24.18;24.84
59272;BME280;45043;51.068;7.026;2022-08-11T19:36:14;100700.63;;;24.09;24.84
59272;BME280;45043;51.068;7.026;2022-08-11T19:39:38;100694.16;;;24.00;24.76
59272;BME280;45043;51.068;7.026;2022-08-11T19:43:00;100689.59;;;23.90;25.46
59272;BME280;45043;51.068;7.026;2022-08-11T19:46:22;100700.75;;;23.83;24.92
59272;BME280;45043;51.068;7.026;2022-08-11T19:49:42;100698.88;;;23.74;25.03
59272;BME280;45043;51.068;7.026;2022-08-11T19:53:04;100705.44;;;23.67;25.17